Terminal Aerodrome Forecast
Issued by NWS Louisville, KY

Home | Current Version | Previous Version | Text Only | Print | Product List | Glossary On
Versions: 1 2 3 4 5 6 7 8 9 10 11 12 13 14 15
637
FTUS43 KLMK 202336
TAFBWG
TAF
KBWG 202336Z 2100/2124 13007KT P6SM VCTS FEW040CB SCT120
      TEMPO 2100/2102 3SM -TSRA BKN040CB
     FM210200 VRB03KT P6SM FEW060 SCT250
     FM211000 VRB03KT 4SM BR SCT250
     FM211400 20008KT P6SM SCT040 BKN250 PROB30 2118/2123 4SM -TSRA
      BKN040CB=

USA.gov is the U.S. government's official web portal to all federal, state and local government web resources and services.